Flight Track Log - Related Links

Times and Time Zones

All times are in EDT time to prevent confusion due to time zone crossing. See the N493TM flight status page for this flight to view local times or setup timezone preferences in your user account.

Time Position Orientation Groundspeed Altitude Reporting Facility
EDT Latitude Longitude Course Direction KTS MPH feet Rate Location/Type
Sat 02:49:20 PM 43.5786 -110.7544 293° West 160 184 7,700  Level Salt Lake Center
Sat 02:50:22 PM 43.5319 -110.7861 206° Southwest 184 212 9,900 1,839 Climbing Salt Lake Center
Sat 02:51:24 PM 43.4719 -110.8244 205° Southwest 223 257 11,500 1,935 Climbing Salt Lake Center
Sat 02:52:26 PM 43.3808 -110.8831 205° Southwest 282 325 13,900 2,323 Climbing Salt Lake Center
Sat 02:53:00 PM 43.2441 -111.1017 293° West  Level FlightAware Approximate
Sat 02:53:28 PM 43.2972 -110.9375 205° Southwest 325 374 16,300  Level Salt Lake Center
Sat 02:54:00 PM 43.2845 -111.2326 293° West  Level FlightAware Approximate
Sat 02:54:30 PM 43.2347 -111.0161 223° Southwest 319 367 18,700  Level Salt Lake Center
Sat 02:55:32 PM 43.2456 -111.1367 277° West 324 373 21,200 2,419 Climbing Salt Lake Center
Sat 02:56:34 PM 43.2906 -111.2425 300° West 323 372 23,700 2,371 Climbing Salt Lake Center
Sat 02:57:36 PM 43.3419 -111.3650 300° West 320 368 26,100 2,129 Climbing Salt Lake Center
Sat 02:58:38 PM 43.3850 -111.4728 299° West 320 368 28,100 1,548 Climbing Salt Lake Center
Sat 02:59:40 PM 43.4292 -111.5783 300° West 320 368 29,300 919 Climbing Salt Lake Center
Sat 03:00:42 PM 43.4783 -111.6986 299° West 354 407 30,000 726 Climbing Salt Lake Center
Sat 03:01:44 PM 43.5300 -111.8250 299° West 374 430 30,800 726 Climbing Salt Lake Center
Sat 03:02:46 PM 43.5850 -111.9578 300° West 396 456 31,500 774 Climbing Salt Lake Center
Sat 03:03:48 PM 43.6531 -112.1219 300° West 407 468 32,400 774 Climbing Salt Lake Center
Sat 03:04:50 PM 43.7092 -112.2631 299° West 418 481 33,100 677 Climbing Salt Lake Center
Sat 03:05:52 PM 43.7706 -112.4108 300° West 419 482 33,800 435 Climbing Salt Lake Center
Sat 03:06:54 PM 43.8286 -112.5556 299° West 425 489 34,000 97 Climbing Salt Lake Center
Sat 03:07:56 PM 43.8878 -112.7036 299° West 435 501 34,000  Level Salt Lake Center
Sat 03:08:58 PM 43.9461 -112.8489 299° West 435 501 34,000 97 Level Salt Lake Center
Sat 03:10:00 PM 44.0025 -112.9933 299° West 432 497 34,200 435 Climbing Salt Lake Center
Sat 03:11:02 PM 44.0600 -113.1392 299° West 432 497 34,900 878 Climbing Salt Lake Center
Sat 03:12:03 PM 44.1283 -113.3125 299° West 431 496 36,000 1,024 Climbing Salt Lake Center
Sat 03:13:05 PM 44.1842 -113.4569 298° West 430 495 37,000 871 Climbing Salt Lake Center
Sat 03:14:07 PM 44.2400 -113.6008 298° West 427 491 37,800 484 Climbing Salt Lake Center
Sat 03:15:09 PM 44.2958 -113.7475 298° West 427 491 38,000 97 Climbing Salt Lake Center
Sat 03:16:11 PM 44.3525 -113.8972 298° West 429 494 38,000  Level Salt Lake Center
Sat 03:17:13 PM 44.4111 -114.0486 298° West 436 502 38,000  Level Salt Lake Center
Sat 03:18:16 PM 44.4806 -114.2294 298° West 439 505 38,000  Level Salt Lake Center
Sat 03:19:17 PM 44.5344 -114.3767 297° West 435 501 38,000  Level Salt Lake Center
Sat 03:20:19 PM 44.5886 -114.5214 298° West 425 489 38,000  Level Salt Lake Center
Sat 03:21:21 PM 44.6417 -114.6647 298° West 417 480 38,000  Level Salt Lake Center
Sat 03:22:22 PM 44.6939 -114.8069 297° West 417 480 38,000  Level Salt Lake Center
Sat 03:23:24 PM 44.7475 -114.9517 298° West 416 479 38,000  Level Salt Lake Center
Sat 03:24:26 PM 44.8117 -115.1242 298° West 416 479 38,000  Level Salt Lake Center
Sat 03:25:28 PM 44.8653 -115.2706 297° West 418 481 38,000  Level Salt Lake Center
Sat 03:26:30 PM 44.9175 -115.4158 297° West 419 482 38,000  Level Salt Lake Center
Sat 03:27:32 PM 44.9703 -115.5611 297° West 419 482 38,000  Level Salt Lake Center
Sat 03:28:34 PM 45.0219 -115.7058 297° West 419 482 38,000  Level Salt Lake Center
Sat 03:29:36 PM 45.0847 -115.8822 297° West 419 482 38,000  Level Salt Lake Center
Sat 03:30:38 PM 45.1353 -116.0275 296° West 418 481 38,000  Level Salt Lake Center
Sat 03:31:40 PM 45.1867 -116.1725 297° West 417 480 38,000  Level Salt Lake Center
Sat 03:32:41 PM 45.2381 -116.3178 297° West 417 480 38,000  Level Salt Lake Center
Sat 03:33:43 PM 45.2881 -116.4631 296° West 415 478 38,000  Level Salt Lake Center
Sat 03:34:45 PM 45.3372 -116.6086 296° West 415 478 38,000  Level Salt Lake Center
Sat 03:35:47 PM 45.3981 -116.7822 297° West 414 476 38,000  Level Salt Lake Center
Sat 03:36:49 PM 45.4472 -116.9256 296° West 409 471 38,000  Level Salt Lake Center
Sat 03:37:51 PM 45.4961 -117.0692 296° West 407 468 38,000  Level Salt Lake Center
Sat 03:39:04 PM 45.5536 -117.2389 296° West 399 459 38,000  Level Seattle Center
Sat 03:40:06 PM 45.6025 -117.3847 296° West 397 457 38,000  Level Seattle Center
Sat 03:41:07 PM 45.6494 -117.5250 296° West 396 456 38,000  Level Seattle Center
Sat 03:42:08 PM 45.7006 -117.6783 296° West 393 452 38,000  Level Seattle Center
Sat 03:43:10 PM 45.7478 -117.8194 296° West 393 452 38,000  Level Seattle Center
Sat 03:44:11 PM 45.7933 -117.9611 295° West 392 451 38,000  Level Seattle Center
Sat 03:45:12 PM 45.8400 -118.1014 296° West 392 451 38,000  Level Seattle Center
Sat 03:46:13 PM 45.8850 -118.2431 295° West 392 451 38,000  Level Seattle Center
Sat 03:47:15 PM 45.9306 -118.3819 295° West 390 449 38,000  Level Seattle Center
Sat 03:48:16 PM 45.9794 -118.5364 295° West 390 449 38,000  Level Seattle Center
Sat 03:49:17 PM 46.0250 -118.6778 295° West 390 449 38,000  Level Seattle Center
Sat 03:50:18 PM 46.0697 -118.8183 295° West 390 449 38,000  Level Seattle Center
Sat 03:51:19 PM 46.1144 -118.9586 295° West 390 449 38,000  Level Seattle Center
Sat 03:52:21 PM 46.1594 -119.1025 294° West 391 450 38,000  Level Seattle Center
Sat 03:53:22 PM 46.2042 -119.2439 295° West 391 450 38,000  Level Seattle Center
Sat 03:54:23 PM 46.2489 -119.3894 294° West 397 457 38,000 -393 Level Seattle Center
Sat 03:55:24 PM 46.3025 -119.5631 294° West 395 455 37,200 -885 Descending Seattle Center
Sat 03:56:25 PM 46.3508 -119.7083 296° West 402 463 36,200 -1,033 Descending Seattle Center
Sat 03:57:26 PM 46.4058 -119.8514 299° West 408 470 35,100 -1,082 Descending Seattle Center
Sat 03:58:27 PM 46.4581 -119.9936 298° West 408 470 34,000 -1,377 Descending Seattle Center
Sat 03:59:28 PM 46.5128 -120.1417 298° West 415 478 32,300 -1,707 Descending Seattle Center
Sat 04:00:30 PM 46.5683 -120.2911 298° West 422 486 30,500 -2,049 Descending Seattle Center
Sat 04:01:31 PM 46.6258 -120.4436 299° West 428 493 28,100 -2,361 Descending Seattle Center
Sat 04:02:32 PM 46.6819 -120.5994 298° West 434 499 25,700 -2,311 Descending Seattle Center
Sat 04:03:33 PM 46.7372 -120.7511 298° West 425 489 23,400 -2,262 Descending Seattle Center
Sat 04:04:34 PM 46.7903 -120.8975 298° West 414 476 21,100 -2,361 Descending Seattle Center
Sat 04:05:35 PM 46.8581 -121.0550 302° West 382 440 18,600 -2,213 Descending Seattle Center
Sat 04:06:36 PM 46.9164 -121.1753 305° West 364 419 16,600 -1,897 Descending Seattle Center
Sat 04:07:32 PM 46.9633 -121.2761 304° West 333 383 14,900 -1,759 Descending Seattle Center
Sat 04:08:32 PM 47.0133 -121.3883 303° West 299 344 13,200 -1,686 Descending Seattle Center
Sat 04:09:33 PM 47.0608 -121.4919 304° West 304 350 11,500 -1,125 Descending Seattle Center
Sat 04:10:40 PM 47.1122 -121.5972 306° West 299 344 10,800 -1,230 Descending Seattle Center
Sat 04:11:35 PM 47.1533 -121.6917 303° West 295 339 9,000 -1,869 Descending Seattle Center
Sat 04:12:42 PM 47.2025 -121.7947 305° West 261 300 7,000 -1,359 Descending Seattle Center
Sat 04:13:43 PM 47.2408 -121.8811 303° West 259 298 6,100 -541 Descending Seattle Center
Sat 04:14:44 PM 47.2783 -121.9625 304° West 243 280 5,900 -324 Descending Seattle Center
Sat 04:14:57 PM 47.2869 -121.9831 302° West 238 274 5,700 -689 Descending Seattle Center
Sat 04:15:45 PM 47.3164 -122.0453 305° West 239 275 5,200 -606 Descending Seattle Center
Sat 04:16:46 PM 47.3536 -122.1281 304° West 243 280 4,600 -797 Descending Seattle Center
Sat 04:17:53 PM 47.4014 -122.1947 317° Northwest 187 215 3,500 -1,131 Descending Seattle Center
Sat 04:18:48 PM 47.4342 -122.2219 331° Northwest 152 175 2,300 -1,082 Descending Seattle Center
Sat 04:19:55 PM 47.4639 -122.2486 329° Northwest 107 123 1,300 -689 Descending Seattle Center
Sat 04:20:50 PM 47.4889 -122.2678 333° Northwest 111 128 900 -569 Descending Seattle Center
Sat 04:21:51 PM 47.5125 -122.2878 330° Northwest 113 130 200 -393 Descending Seattle Center
Sat 04:22:52 PM 47.5422 -122.3136 330° Northwest 111 128 100 -98 Descending Seattle Center
Sat 04:24:00 PM 47.5300 -122.3020 180° South  Level Estimated

Login

Don't have an account? Register now (free) for customized features, flight alerts, and more!